Time;durP1;ratioP1;P1;durP2;ratioP2;P2;SDS_P1;SDS_P2;PMS_P1;PMS_P2;Temp;Humidity;BMP_temperature;BMP_pressure;BME280_temperature;BME280_humidity;BME280_pressure;Samples;Min_cycle;Max_cycle;Signal;HPM_P1;HPM_P2
2021/09/24 00:08:33;;;;;;;6.20;5.60;;;13.70;89.20;;;;;;5154062;27;20200;-83
2021/09/24 00:11:00;;;;;;;6.65;6.05;;;13.70;89.40;;;;;;5161055;27;20185;-84
2021/09/24 00:13:27;;;;;;;6.53;5.82;;;13.70;89.50;;;;;;5180174;22;20217;-78
2021/09/24 00:15:54;;;;;;;6.03;5.43;;;13.80;88.10;;;;;;5114093;28;20283;-77
2021/09/24 00:18:22;;;;;;;6.90;6.25;;;13.80;88.10;;;;;;5115002;28;20221;-79
2021/09/24 00:20:48;;;;;;;5.57;5.03;;;13.80;88.20;;;;;;5114979;28;20290;-77
2021/09/24 00:23:16;;;;;;;10.95;5.40;;;13.80;88.20;;;;;;5114986;28;20661;-78
2021/09/24 00:25:44;;;;;;;6.50;5.82;;;13.80;88.10;;;;;;5114779;28;20318;-77
2021/09/24 00:28:11;;;;;;;5.97;5.35;;;13.90;87.50;;;;;;5115252;28;20252;-77
2021/09/24 00:30:38;;;;;;;6.38;5.57;;;13.90;86.80;;;;;;5114648;28;20327;-77
2021/09/24 00:33:05;;;;;;;9.80;6.65;;;13.90;86.10;;;;;;5115042;28;20293;-78
2021/09/24 00:35:32;;;;;;;6.05;5.45;;;13.90;86.00;;;;;;5114794;28;20633;-77
2021/09/24 00:37:59;;;;;;;6.65;6.05;;;13.90;85.90;;;;;;5117573;28;20236;-77
2021/09/24 00:40:26;;;;;;;10.73;6.10;;;14.00;85.20;;;;;;5117433;28;20267;-77
2021/09/24 00:42:54;;;;;;;6.80;6.13;;;14.00;84.50;;;;;;5117596;28;20209;-77
2021/09/24 00:45:21;;;;;;;8.23;6.00;;;14.00;84.50;;;;;;5117365;28;20269;-77
2021/09/24 00:47:48;;;;;;;6.03;5.25;;;14.00;84.50;;;;;;5118730;28;20297;-77
2021/09/24 00:50:15;;;;;;;6.15;5.55;;;14.00;84.80;;;;;;5118288;28;20294;-78
2021/09/24 00:52:42;;;;;;;8.05;6.30;;;14.00;84.40;;;;;;5118215;28;20587;-77
2021/09/24 00:55:10;;;;;;;6.43;5.25;;;14.00;83.60;;;;;;5117472;28;20264;-77
2021/09/24 00:57:37;;;;;;;6.68;6.05;;;14.10;83.30;;;;;;5118028;28;20210;-78
2021/09/24 01:00:08;;;;;;;6.40;5.80;;;14.10;82.90;;;;;;5118278;28;20616;-78
2021/09/24 01:02:35;;;;;;;5.95;4.97;;;14.10;82.60;;;;;;5118227;28;20305;-77
2021/09/24 01:05:02;;;;;;;6.22;5.55;;;14.20;82.20;;;;;;5118381;28;20246;-77
2021/09/24 01:07:29;;;;;;;6.28;5.28;;;14.10;81.70;;;;;;5118572;28;20237;-78
2021/09/24 01:09:56;;;;;;;6.00;5.35;;;14.10;81.70;;;;;;5119996;28;20228;-78
2021/09/24 01:12:24;;;;;;;7.18;5.75;;;14.10;81.80;;;;;;5120393;28;20218;-75
2021/09/24 01:14:58;;;;;;;5.88;5.38;;;14.10;81.70;;;;;;5118863;28;20238;-78
2021/09/24 01:17:27;;;;;;;6.28;5.38;;;14.10;81.70;;;;;;5119418;28;20220;-77
2021/09/24 01:19:54;;;;;;;6.47;5.22;;;14.20;81.70;;;;;;5123780;28;20206;-77
2021/09/24 01:22:22;;;;;;;8.93;5.60;;;14.20;81.30;;;;;;5131329;28;20217;-79
2021/09/24 01:24:49;;;;;;;6.75;5.70;;;14.30;81.10;;;;;;5134689;28;20237;-79
2021/09/24 01:27:16;;;;;;;8.48;5.68;;;14.20;80.80;;;;;;5133229;28;20202;-79
2021/09/24 01:29:43;;;;;;;6.50;5.70;;;14.20;81.10;;;;;;5130415;28;20312;-76
2021/09/24 01:32:10;;;;;;;8.60;6.43;;;14.20;82.00;;;;;;5135435;28;20207;-77
2021/09/24 01:34:37;;;;;;;7.22;5.03;;;14.20;82.40;;;;;;5136087;28;20217;-79
2021/09/24 01:37:04;;;;;;;8.30;6.10;;;14.20;82.20;;;;;;5136741;28;20226;-79
2021/09/24 01:39:33;;;;;;;6.20;5.55;;;14.20;82.00;;;;;;5128924;28;20211;-77
2021/09/24 01:42:00;;;;;;;7.28;5.30;;;14.20;82.40;;;;;;5131120;28;20205;-77
2021/09/24 01:44:27;;;;;;;7.22;6.53;;;14.20;82.30;;;;;;5131099;28;20241;-79
2021/09/24 01:46:55;;;;;;;6.18;5.57;;;14.10;82.80;;;;;;5132398;28;20303;-76
2021/09/24 01:49:22;;;;;;;7.50;6.10;;;14.10;82.80;;;;;;5133530;28;20178;-78
2021/09/24 01:51:50;;;;;;;5.82;5.32;;;14.10;83.10;;;;;;5132011;28;20206;-76
2021/09/24 01:54:19;;;;;;;6.70;6.10;;;14.00;85.00;;;;;;5133972;28;20232;-77
2021/09/24 01:56:48;;;;;;;5.93;5.13;;;14.00;84.90;;;;;;5131444;28;20257;-76
2021/09/24 01:59:15;;;;;;;6.38;5.70;;;14.00;85.80;;;;;;5122908;28;20236;-76
2021/09/24 02:01:42;;;;;;;11.95;6.05;;;13.90;86.50;;;;;;5120350;28;20650;-78
2021/09/24 02:04:09;;;;;;;7.28;6.15;;;13.90;86.50;;;;;;5120152;28;20643;-77
2021/09/24 02:06:36;;;;;;;6.80;6.10;;;13.80;88.10;;;;;;5125246;28;20214;-76
2021/09/24 02:09:03;;;;;;;7.93;5.88;;;13.70;88.10;;;;;;5121039;28;20209;-79
2021/09/24 02:11:30;;;;;;;9.18;7.00;;;13.70;88.10;;;;;;5118467;28;20575;-76
2021/09/24 02:13:58;;;;;;;7.45;6.60;;;13.60;89.10;;;;;;5117803;28;20340;-76
2021/09/24 02:16:26;;;;;;;8.32;6.65;;;13.60;89.80;;;;;;5117680;28;20229;-76
2021/09/24 02:18:53;;;;;;;7.97;6.68;;;13.50;90.30;;;;;;5117568;28;20217;-76
2021/09/24 02:21:20;;;;;;;7.35;6.65;;;13.50;90.90;;;;;;5117913;28;20235;-77
2021/09/24 02:23:47;;;;;;;9.65;6.88;;;13.40;90.80;;;;;;5117243;28;20311;-76
2021/09/24 02:26:14;;;;;;;8.50;6.93;;;13.30;91.70;;;;;;5117234;28;20283;-76
2021/09/24 02:28:42;;;;;;;11.35;7.28;;;13.20;92.50;;;;;;5116664;28;20202;-76
2021/09/24 02:31:12;;;;;;;7.50;6.80;;;13.20;92.60;;;;;;5117029;28;20257;-76
2021/09/24 02:33:39;;;;;;;7.03;6.40;;;13.20;92.90;;;;;;5116370;28;20239;-77
2021/09/24 02:36:07;;;;;;;8.25;7.07;;;13.20;93.20;;;;;;5118112;28;20323;-76
2021/09/24 02:38:35;;;;;;;7.70;6.97;;;13.20;93.20;;;;;;5121061;28;20309;-76
2021/09/24 02:41:03;;;;;;;7.95;5.85;;;13.20;93.70;;;;;;5120695;28;20296;-76
2021/09/24 02:43:30;;;;;;;7.57;6.28;;;13.10;93.70;;;;;;5120136;28;20253;-76
2021/09/24 02:45:56;;;;;;;8.43;6.80;;;13.10;94.40;;;;;;5121183;28;20204;-76
2021/09/24 02:48:25;;;;;;;9.18;7.60;;;13.10;94.80;;;;;;5120420;28;20291;-76
2021/09/24 02:50:52;;;;;;;9.13;7.53;;;13.00;95.30;;;;;;5120097;28;20292;-77
2021/09/24 02:53:19;;;;;;;10.18;7.35;;;13.00;95.90;;;;;;5120630;28;20233;-77
2021/09/24 02:55:45;;;;;;;8.00;7.20;;;13.00;96.10;;;;;;5119238;28;20209;-78
2021/09/24 02:58:12;;;;;;;9.30;7.70;;;13.00;96.50;;;;;;5119965;28;20277;-76
2021/09/24 03:00:39;;;;;;;8.20;7.25;;;13.00;96.60;;;;;;5120700;28;20292;-76
2021/09/24 03:03:06;;;;;;;8.80;7.35;;;12.90;96.70;;;;;;5118908;28;20236;-77
2021/09/24 03:05:35;;;;;;;9.10;7.15;;;12.90;97.30;;;;;;5118783;28;20235;-76
2021/09/24 03:08:03;;;;;;;10.15;8.23;;;12.90;97.90;;;;;;5119124;28;20229;-75
2021/09/24 03:10:30;;;;;;;10.05;7.72;;;12.90;97.90;;;;;;5118146;28;20208;-76
2021/09/24 03:12:56;;;;;;;8.88;7.40;;;12.90;98.00;;;;;;5118603;28;20767;-76
2021/09/24 03:15:24;;;;;;;9.27;7.30;;;12.80;98.20;;;;;;5119249;28;20232;-77
2021/09/24 03:17:50;;;;;;;8.82;7.75;;;12.80;98.00;;;;;;5119365;28;20292;-76
2021/09/24 03:20:17;;;;;;;8.25;7.45;;;12.80;98.20;;;;;;5117984;28;20233;-77
2021/09/24 03:22:46;;;;;;;8.55;7.50;;;12.70;98.40;;;;;;5119039;28;20243;-76
2021/09/24 03:25:13;;;;;;;8.65;7.10;;;12.70;99.00;;;;;;5118663;28;20228;-76
2021/09/24 03:27:40;;;;;;;8.25;7.25;;;12.70;98.80;;;;;;5118245;28;20196;-77
2021/09/24 03:30:08;;;;;;;9.13;7.90;;;12.70;99.00;;;;;;5118868;28;20227;-77
2021/09/24 03:32:36;;;;;;;7.68;6.88;;;12.70;99.10;;;;;;5118697;28;20248;-77
2021/09/24 03:35:04;;;;;;;8.68;7.72;;;12.70;98.90;;;;;;5119483;28;20274;-77
2021/09/24 03:37:31;;;;;;;8.30;7.50;;;12.70;98.90;;;;;;5119476;28;20220;-77
2021/09/24 03:39:59;;;;;;;9.00;7.85;;;12.70;98.80;;;;;;5120401;28;20208;-76
2021/09/24 03:42:26;;;;;;;9.50;7.40;;;12.80;98.60;;;;;;5119635;28;20672;-77
2021/09/24 03:44:54;;;;;;;8.35;7.45;;;12.70;98.50;;;;;;5119071;28;20654;-76
2021/09/24 03:47:21;;;;;;;10.23;7.60;;;12.70;98.40;;;;;;5117782;28;20204;-77
2021/09/24 03:49:48;;;;;;;9.25;8.07;;;12.70;98.20;;;;;;5117951;28;20205;-77
2021/09/24 03:52:15;;;;;;;10.15;8.00;;;12.70;98.30;;;;;;5118709;28;20717;-77
2021/09/24 03:54:42;;;;;;;11.90;9.65;;;12.70;98.50;;;;;;5118240;28;20256;-77
2021/09/24 03:57:10;;;;;;;8.63;7.63;;;12.60;98.60;;;;;;5118595;28;20699;-76
2021/09/24 03:59:37;;;;;;;14.60;8.50;;;12.60;98.90;;;;;;5119329;28;20296;-76
2021/09/24 04:02:04;;;;;;;9.77;8.40;;;12.50;99.30;;;;;;5119403;28;20206;-76
2021/09/24 04:04:31;;;;;;;8.70;7.85;;;12.50;99.40;;;;;;5118865;28;20596;-77
2021/09/24 04:06:58;;;;;;;11.15;8.30;;;12.40;99.70;;;;;;5118710;27;20200;-76
2021/09/24 04:09:25;;;;;;;10.00;8.20;;;12.40;99.90;;;;;;5118127;28;20299;-76
2021/09/24 04:11:52;;;;;;;10.63;8.63;;;12.40;99.90;;;;;;5116572;28;20296;-76
2021/09/24 04:14:20;;;;;;;9.73;8.65;;;12.30;99.90;;;;;;5116496;28;20319;-77
2021/09/24 04:16:47;;;;;;;11.88;8.23;;;12.30;99.90;;;;;;5116638;28;20228;-77
2021/09/24 04:19:14;;;;;;;12.55;9.23;;;12.20;99.90;;;;;;5115860;28;20239;-77
2021/09/24 04:21:41;;;;;;;9.10;8.10;;;12.20;99.90;;;;;;5116570;28;20232;-76
2021/09/24 04:24:08;;;;;;;13.55;8.38;;;12.20;99.90;;;;;;5116291;28;20263;-76
2021/09/24 04:26:35;;;;;;;11.40;9.10;;;12.20;99.90;;;;;;5116965;28;20240;-77
2021/09/24 04:29:05;;;;;;;9.00;8.10;;;12.20;99.90;;;;;;5116588;28;20212;-78
2021/09/24 04:31:33;;;;;;;11.10;8.65;;;12.20;99.90;;;;;;5116896;27;20680;-78
2021/09/24 04:34:00;;;;;;;12.02;9.05;;;12.10;99.90;;;;;;5117155;28;20247;-77
2021/09/24 04:36:27;;;;;;;13.70;8.60;;;12.10;99.90;;;;;;5116994;28;20236;-77
2021/09/24 04:38:55;;;;;;;9.88;8.88;;;12.10;99.90;;;;;;5117408;28;20288;-77
2021/09/24 04:41:22;;;;;;;10.45;9.25;;;12.10;99.90;;;;;;5120041;28;20204;-77
2021/09/24 04:43:49;;;;;;;11.63;9.45;;;12.10;99.90;;;;;;5118523;28;20235;-77
2021/09/24 04:46:16;;;;;;;11.52;8.82;;;12.10;99.90;;;;;;5119647;28;20254;-77
2021/09/24 04:48:45;;;;;;;11.57;8.88;;;12.00;99.90;;;;;;5120648;28;20197;-81
2021/09/24 04:51:12;;;;;;;11.60;9.02;;;12.00;99.90;;;;;;5117406;28;20207;-77
2021/09/24 04:53:38;;;;;;;12.98;10.00;;;12.00;99.90;;;;;;5116006;28;20292;-77
2021/09/24 04:56:06;;;;;;;11.40;10.20;;;12.00;99.90;;;;;;5115995;28;20268;-77
2021/09/24 04:58:33;;;;;;;11.27;9.52;;;12.10;99.90;;;;;;5115205;28;20262;-77
2021/09/24 05:01:00;;;;;;;12.30;9.63;;;12.10;99.90;;;;;;5116128;28;20240;-77
2021/09/24 05:03:27;;;;;;;11.30;9.35;;;12.10;99.90;;;;;;5117587;28;20571;-76
2021/09/24 05:05:55;;;;;;;11.88;9.38;;;12.10;99.90;;;;;;5117264;28;20291;-76
2021/09/24 05:08:22;;;;;;;11.10;9.35;;;12.10;99.90;;;;;;5121552;28;20231;-76
2021/09/24 05:10:49;;;;;;;11.25;8.80;;;12.10;99.90;;;;;;5122296;28;20277;-77
2021/09/24 05:13:16;;;;;;;13.40;9.80;;;12.10;99.90;;;;;;5123827;28;20224;-76
2021/09/24 05:15:43;;;;;;;12.82;9.70;;;12.10;99.90;;;;;;5123594;28;20286;-77
2021/09/24 05:18:10;;;;;;;11.00;9.90;;;12.10;99.90;;;;;;5127612;28;20224;-79
2021/09/24 05:20:37;;;;;;;12.40;10.45;;;12.10;99.90;;;;;;5124954;28;20246;-77
2021/09/24 05:23:05;;;;;;;13.68;11.38;;;12.10;99.90;;;;;;5121165;28;20226;-78
2021/09/24 05:25:32;;;;;;;11.85;9.85;;;12.00;99.90;;;;;;5118432;28;20715;-78
2021/09/24 05:27:59;;;;;;;15.95;12.35;;;12.00;99.90;;;;;;5117895;28;20291;-76
2021/09/24 05:30:26;;;;;;;12.88;10.80;;;12.10;99.90;;;;;;5116378;28;20232;-77
2021/09/24 05:32:53;;;;;;;15.20;11.38;;;12.10;99.90;;;;;;5116905;28;20212;-77
2021/09/24 05:35:20;;;;;;;12.98;10.30;;;12.20;99.90;;;;;;5116852;28;20239;-79
2021/09/24 05:37:47;;;;;;;15.68;11.77;;;12.20;99.90;;;;;;5123547;28;20466;-77
2021/09/24 05:40:16;;;;;;;14.95;10.90;;;12.30;99.90;;;;;;5121850;27;20223;-77
2021/09/24 05:42:43;;;;;;;14.50;11.60;;;12.40;99.90;;;;;;5120798;28;20207;-79
2021/09/24 05:45:14;;;;;;;14.35;11.48;;;12.40;99.90;;;;;;5119437;28;20251;-78
2021/09/24 05:47:41;;;;;;;16.50;10.82;;;12.40;99.90;;;;;;5117469;28;20208;-77
2021/09/24 05:50:12;;;;;;;13.65;10.90;;;12.40;99.90;;;;;;5115867;28;20683;-77
2021/09/24 05:52:41;;;;;;;11.57;10.32;;;12.50;99.90;;;;;;5115894;28;20608;-77
2021/09/24 05:55:09;;;;;;;13.65;11.07;;;12.50;99.90;;;;;;5116348;28;20224;-77
2021/09/24 05:57:38;;;;;;;17.40;11.25;;;12.50;99.90;;;;;;5116530;28;20311;-77
2021/09/24 06:00:09;;;;;;;14.68;11.35;;;12.60;99.90;;;;;;5121087;28;20228;-77
2021/09/24 06:02:36;;;;;;;13.93;10.73;;;12.60;99.90;;;;;;5116768;28;20215;-76
2021/09/24 06:05:08;;;;;;;13.68;10.80;;;12.70;99.90;;;;;;5116263;28;20277;-76
2021/09/24 06:07:35;;;;;;;11.48;10.25;;;12.70;99.90;;;;;;5117303;28;20211;-77
2021/09/24 06:10:03;;;;;;;12.52;10.82;;;12.80;99.90;;;;;;5115335;28;20208;-76
2021/09/24 06:12:30;;;;;;;15.63;10.82;;;12.80;99.90;;;;;;5128911;28;20691;-77
2021/09/24 06:15:00;;;;;;;12.55;10.35;;;12.90;99.90;;;;;;5135098;28;20220;-80
2021/09/24 06:17:27;;;;;;;11.48;10.27;;;12.90;99.90;;;;;;5134878;28;20280;-77
2021/09/24 06:19:54;;;;;;;10.60;9.15;;;13.00;99.90;;;;;;5118501;28;20236;-77
2021/09/24 06:22:21;;;;;;;13.93;10.50;;;13.00;99.90;;;;;;5119451;28;20215;-77
2021/09/24 06:24:48;;;;;;;12.98;9.77;;;13.10;99.90;;;;;;5121939;28;20248;-78
2021/09/24 06:27:17;;;;;;;11.63;9.68;;;13.20;99.80;;;;;;5121583;28;20201;-78
2021/09/24 06:29:46;;;;;;;12.95;10.38;;;13.20;99.20;;;;;;5118511;28;20213;-79
2021/09/24 06:32:14;;;;;;;15.85;11.00;;;13.30;98.40;;;;;;5115342;28;20213;-77
2021/09/24 06:34:42;;;;;;;13.85;10.18;;;13.40;97.50;;;;;;5114457;28;20781;-77
2021/09/24 06:37:10;;;;;;;12.82;10.23;;;13.50;96.40;;;;;;5114601;28;20208;-77
2021/09/24 06:39:37;;;;;;;10.80;9.48;;;13.50;96.20;;;;;;5114650;28;20235;-76
2021/09/24 06:42:04;;;;;;;16.08;10.65;;;13.50;95.60;;;;;;5115078;28;20202;-76
2021/09/24 06:44:31;;;;;;;13.13;10.52;;;13.60;95.20;;;;;;5115923;28;20221;-77
2021/09/24 06:46:58;;;;;;;11.40;9.68;;;13.60;94.70;;;;;;5115400;28;20228;-78
2021/09/24 06:49:27;;;;;;;13.52;10.18;;;13.70;94.40;;;;;;5115009;28;20198;-77
2021/09/24 06:51:55;;;;;;;12.68;9.63;;;13.80;93.80;;;;;;5115349;28;20210;-78
2021/09/24 06:54:22;;;;;;;12.05;10.02;;;13.80;93.20;;;;;;5115376;28;20293;-78
2021/09/24 06:56:49;;;;;;;14.32;10.88;;;13.90;93.10;;;;;;5114799;28;20701;-78
2021/09/24 06:59:16;;;;;;;14.40;10.27;;;14.00;92.90;;;;;;5114606;28;20319;-77
2021/09/24 07:01:44;;;;;;;11.65;9.88;;;14.00;92.30;;;;;;5116056;28;20207;-78
2021/09/24 07:04:11;;;;;;;14.10;9.88;;;14.10;92.00;;;;;;5118831;28;20232;-78
2021/09/24 07:06:40;;;;;;;13.32;10.27;;;14.10;91.60;;;;;;5116589;28;20231;-78
2021/09/24 07:09:07;;;;;;;11.67;10.13;;;14.20;91.30;;;;;;5116122;28;20259;-78
2021/09/24 07:11:34;;;;;;;22.75;10.80;;;14.20;90.80;;;;;;5116317;28;20565;-78
2021/09/24 07:14:01;;;;;;;12.15;10.60;;;14.30;90.70;;;;;;5115867;28;20570;-78
2021/09/24 07:16:28;;;;;;;12.63;9.50;;;14.40;90.30;;;;;;5116495;28;20206;-77
2021/09/24 07:18:56;;;;;;;13.68;10.00;;;14.40;90.10;;;;;;5116843;28;20256;-78
2021/09/24 07:21:22;;;;;;;10.90;9.50;;;14.60;89.80;;;;;;5118282;28;20228;-77
2021/09/24 07:23:51;;;;;;;11.60;10.40;;;14.70;89.00;;;;;;5122187;28;20505;-77
2021/09/24 07:26:18;;;;;;;11.90;9.75;;;14.80;89.00;;;;;;5122026;28;20535;-77
2021/09/24 07:28:45;;;;;;;10.77;9.68;;;14.90;86.90;;;;;;5121484;28;20229;-77
2021/09/24 07:31:12;;;;;;;11.63;9.67;;;15.10;85.70;;;;;;5120409;28;20600;-77
2021/09/24 07:33:39;;;;;;;11.27;9.13;;;15.20;84.70;;;;;;5120635;28;20488;-79
2021/09/24 07:36:06;;;;;;;12.97;8.40;;;15.20;84.50;;;;;;5120547;28;20235;-77
2021/09/24 07:38:33;;;;;;;13.40;10.33;;;15.40;83.20;;;;;;5120851;28;20575;-78
2021/09/24 07:41:02;;;;;;;13.80;9.20;;;15.50;81.30;;;;;;5121712;28;20484;-76
2021/09/24 07:43:29;;;;;;;11.93;10.00;;;15.60;81.40;;;;;;5121413;28;20462;-77
2021/09/24 07:45:56;;;;;;;12.00;9.80;;;15.70;80.30;;;;;;5122585;28;20450;-78
2021/09/24 07:48:23;;;;;;;10.73;9.27;;;15.70;78.90;;;;;;5128961;28;20225;-80
2021/09/24 07:50:50;;;;;;;11.30;10.03;;;15.70;79.20;;;;;;5130531;28;20448;-78
2021/09/24 07:53:18;;;;;;;11.10;9.93;;;15.80;79.20;;;;;;5138225;28;20442;-79
2021/09/24 07:55:44;;;;;;;14.43;10.40;;;15.80;78.50;;;;;;5138538;28;20465;-78
2021/09/24 07:58:13;;;;;;;15.20;9.90;;;15.90;77.80;;;;;;5132580;28;20534;-81
2021/09/24 08:00:40;;;;;;;11.93;10.53;;;16.00;77.40;;;;;;5136757;28;20463;-79
2021/09/24 08:03:07;;;;;;;13.13;10.63;;;16.00;76.40;;;;;;5137832;28;20519;-80
2021/09/24 08:05:34;;;;;;;11.30;10.10;;;16.20;75.60;;;;;;5128937;28;20608;-80
2021/09/24 08:08:02;;;;;;;12.73;10.10;;;16.30;74.80;;;;;;5128129;28;20945;-80
2021/09/24 08:10:29;;;;;;;12.53;9.43;;;16.40;74.20;;;;;;5126703;28;20451;-80
2021/09/24 08:12:57;;;;;;;10.63;9.53;;;16.50;74.20;;;;;;5127223;28;20450;-80
2021/09/24 08:15:26;;;;;;;11.00;9.03;;;16.60;73.90;;;;;;5126637;28;20449;-80
2021/09/24 08:17:55;;;;;;;12.93;10.83;;;16.60;72.30;;;;;;5130634;28;20570;-76
2021/09/24 08:20:22;;;;;;;11.90;10.17;;;16.70;72.30;;;;;;5119869;28;20516;-78
2021/09/24 08:22:49;;;;;;;12.30;9.97;;;16.80;71.40;;;;;;5120601;28;20535;-78
2021/09/24 08:25:19;;;;;;;13.87;9.10;;;16.90;70.80;;;;;;5123360;28;20884;-80
2021/09/24 08:27:47;;;;;;;12.70;8.90;;;16.90;70.30;;;;;;5125446;28;20417;-80
2021/09/24 08:30:16;;;;;;;10.00;8.93;;;17.00;69.20;;;;;;5127225;28;20517;-79
2021/09/24 08:32:45;;;;;;;11.73;9.07;;;17.10;68.90;;;;;;5135436;28;20446;-79
2021/09/24 08:35:14;;;;;;;11.93;8.80;;;17.20;68.40;;;;;;5134397;28;20535;-78
2021/09/24 08:37:42;;;;;;;9.37;8.43;;;17.30;66.70;;;;;;5135719;28;20461;-79
2021/09/24 08:40:11;;;;;;;10.50;8.67;;;17.40;66.30;;;;;;5135805;28;20446;-78
2021/09/24 08:42:39;;;;;;;10.60;7.60;;;17.60;66.00;;;;;;5128747;28;20480;-78
2021/09/24 08:45:10;;;;;;;8.27;7.43;;;17.70;65.70;;;;;;5118973;28;20982;-77
2021/09/24 08:47:37;;;;;;;9.83;7.90;;;17.80;64.30;;;;;;5119614;28;20435;-77
2021/09/24 08:50:07;;;;;;;10.63;7.70;;;17.80;63.80;;;;;;5118553;28;20450;-77
2021/09/24 08:52:35;;;;;;;10.13;7.63;;;18.00;62.30;;;;;;5117689;28;20462;-77
2021/09/24 08:55:02;;;;;;;11.70;8.03;;;17.90;61.30;;;;;;5117777;28;20541;-78
2021/09/24 08:57:29;;;;;;;11.10;7.03;;;17.90;60.90;;;;;;5118383;28;20947;-77
2021/09/24 08:59:56;;;;;;;9.77;7.53;;;18.00;60.30;;;;;;5119249;28;20894;-80
2021/09/24 09:02:23;;;;;;;8.37;7.03;;;18.10;59.30;;;;;;5121931;28;20434;-78
2021/09/24 09:04:50;;;;;;;8.03;7.23;;;18.20;59.70;;;;;;5121885;28;20803;-79
2021/09/24 09:07:21;;;;;;;8.33;7.40;;;18.30;58.70;;;;;;5120721;28;20482;-76
2021/09/24 09:09:52;;;;;;;8.80;7.90;;;18.40;58.60;;;;;;5118650;28;20421;-77
2021/09/24 09:12:21;;;;;;;10.07;7.57;;;18.40;59.00;;;;;;5121885;28;20451;-79
2021/09/24 09:15:00;;;;;;;8.50;7.60;;;18.40;59.60;;;;;;5123583;28;20498;-78
2021/09/24 09:17:29;;;;;;;8.27;7.47;;;18.60;58.00;;;;;;5125425;28;20431;-77
2021/09/24 09:20:18;;;;;;;8.03;7.23;;;18.60;57.30;;;;;;5115820;28;20822;-78
2021/09/24 09:22:49;;;;;;;9.70;8.70;;;18.70;57.40;;;;;;5110659;28;20981;-78
2021/09/24 09:25:27;;;;;;;8.37;7.33;;;18.70;57.40;;;;;;5120895;28;20474;-80
2021/09/24 09:27:56;;;;;;;11.37;7.67;;;18.80;57.50;;;;;;5128822;28;20475;-80
2021/09/24 09:30:24;;;;;;;9.70;8.10;;;18.90;57.60;;;;;;5125195;28;20437;-79
2021/09/24 09:33:04;;;;;;;8.53;7.70;;;18.90;57.60;;;;;;5123607;28;20427;-80
2021/09/24 09:35:37;;;;;;;7.63;6.93;;;18.90;57.60;;;;;;5122264;28;20448;-81
2021/09/24 09:38:06;;;;;;;9.23;8.30;;;19.00;57.30;;;;;;5123268;28;20418;-79
2021/09/24 09:40:34;;;;;;;10.27;8.17;;;19.10;57.10;;;;;;5122396;28;20614;-79
2021/09/24 09:43:01;;;;;;;8.40;6.97;;;19.00;56.40;;;;;;5123631;28;20482;-79
2021/09/24 09:45:28;;;;;;;7.93;7.17;;;19.10;56.80;;;;;;5125327;28;20513;-79
2021/09/24 09:47:56;;;;;;;8.83;7.93;;;19.30;55.50;;;;;;5133686;28;20521;-80
2021/09/24 09:50:25;;;;;;;9.83;7.70;;;19.40;55.00;;;;;;5133161;28;20482;-79
2021/09/24 09:53:07;;;;;;;7.30;6.60;;;19.50;55.30;;;;;;5133071;28;20433;-78
2021/09/24 09:55:36;;;;;;;8.57;7.47;;;19.60;54.20;;;;;;5133993;28;20453;-80
2021/09/24 09:58:06;;;;;;;7.77;7.00;;;19.70;53.10;;;;;;5133934;28;20427;-78
2021/09/24 10:00:35;;;;;;;8.37;6.90;;;19.80;53.80;;;;;;5131809;28;20451;-79
2021/09/24 10:03:10;;;;;;;11.37;7.57;;;19.80;52.90;;;;;;5129013;28;20574;-80
2021/09/24 10:05:39;;;;;;;7.80;7.10;;;19.90;51.80;;;;;;5130703;28;20477;-79
2021/09/24 10:08:22;;;;;;;7.00;6.30;;;20.00;51.70;;;;;;5129899;28;20409;-79
2021/09/24 10:10:57;;;;;;;7.40;6.70;;;20.20;50.50;;;;;;5127193;28;20456;-79
2021/09/24 10:13:25;;;;;;;7.83;7.00;;;20.10;49.60;;;;;;5121219;28;20427;-77
2021/09/24 10:15:52;;;;;;;6.40;5.80;;;20.30;50.00;;;;;;5118272;28;20551;-77
2021/09/24 10:18:19;;;;;;;6.57;5.93;;;20.40;49.20;;;;;;5118009;28;20547;-76
2021/09/24 10:20:47;;;;;;;6.93;6.23;;;20.50;49.30;;;;;;5118651;28;20460;-77
2021/09/24 10:23:14;;;;;;;6.87;6.27;;;20.50;49.30;;;;;;5119418;28;20482;-77
2021/09/24 10:25:45;;;;;;;6.93;6.23;;;20.60;49.40;;;;;;5117679;28;20497;-77
2021/09/24 10:28:13;;;;;;;7.47;6.00;;;20.70;49.40;;;;;;5118564;28;20465;-78
2021/09/24 10:30:41;;;;;;;8.60;6.40;;;20.70;47.20;;;;;;5118947;28;20481;-78
2021/09/24 10:33:13;;;;;;;7.30;6.17;;;20.60;47.00;;;;;;5128049;28;20811;-77
2021/09/24 10:35:48;;;;;;;7.60;6.03;;;20.60;46.80;;;;;;5120689;28;20564;-77
2021/09/24 10:38:16;;;;;;;8.10;5.40;;;20.60;46.50;;;;;;5120198;28;20417;-78
2021/09/24 10:40:56;;;;;;;7.40;5.20;;;20.60;45.70;;;;;;5126624;28;20453;-77
2021/09/24 10:43:42;;;;;;;8.57;5.13;;;20.60;44.30;;;;;;5123207;28;20457;-78
2021/09/24 10:46:32;;;;;;;9.27;5.23;;;20.60;45.10;;;;;;5121095;28;20528;-78
2021/09/24 10:49:32;;;;;;;6.50;5.53;;;20.70;45.10;;;;;;5117668;28;20518;-77
2021/09/24 10:52:13;;;;;;;5.90;5.10;;;20.80;43.40;;;;;;5113833;28;20433;-77
2021/09/24 10:54:58;;;;;;;5.17;4.70;;;20.80;43.90;;;;;;5131410;28;20425;-83
2021/09/24 10:57:48;;;;;;;8.07;5.30;;;20.90;44.10;;;;;;5139942;28;20444;-75
2021/09/24 11:00:25;;;;;;;6.23;5.63;;;20.90;44.10;;;;;;5141419;28;20484;-78
2021/09/24 11:03:08;;;;;;;8.33;5.27;;;20.90;43.90;;;;;;5141618;28;20440;-77
2021/09/24 11:05:58;;;;;;;5.43;4.90;;;21.00;44.00;;;;;;5141298;28;20461;-78
2021/09/24 11:08:41;;;;;;;6.10;5.23;;;21.10;43.80;;;;;;5141641;28;20457;-77
2021/09/24 11:11:10;;;;;;;5.50;5.00;;;21.10;42.70;;;;;;5141042;27;20407;-78
2021/09/24 11:13:43;;;;;;;11.80;5.37;;;21.20;43.20;;;;;;5132555;28;20445;-76
2021/09/24 11:16:12;;;;;;;11.23;6.07;;;21.10;42.70;;;;;;5128966;28;20428;-77
2021/09/24 11:18:49;;;;;;;6.73;5.10;;;21.10;42.50;;;;;;5121287;28;20534;-78
2021/09/24 11:21:17;;;;;;;5.83;5.33;;;21.20;42.60;;;;;;5121830;28;20841;-77
2021/09/24 11:23:45;;;;;;;5.80;4.87;;;21.30;43.70;;;;;;5119953;28;20445;-76
2021/09/24 11:26:17;;;;;;;5.33;4.77;;;21.50;41.80;;;;;;5125502;28;20444;-78
2021/09/24 11:28:48;;;;;;;6.07;5.13;;;21.50;40.20;;;;;;5125173;28;20458;-78
2021/09/24 11:31:16;;;;;;;7.80;5.50;;;21.60;40.30;;;;;;5125122;28;20434;-79
2021/09/24 11:33:47;;;;;;;8.10;4.97;;;21.60;40.70;;;;;;5129307;28;20478;-78
2021/09/24 11:36:15;;;;;;;8.30;5.80;;;21.70;40.70;;;;;;5133236;28;20536;-80
2021/09/24 11:38:42;;;;;;;6.97;5.83;;;21.70;40.40;;;;;;5126313;28;20453;-80
2021/09/24 11:41:14;;;;;;;7.60;5.30;;;21.70;40.40;;;;;;5125937;28;20481;-80
2021/09/24 11:43:41;;;;;;;6.00;5.40;;;21.80;41.20;;;;;;5128652;28;20476;-79
2021/09/24 11:46:18;;;;;;;6.87;5.23;;;21.90;40.60;;;;;;5126215;28;20424;-81
2021/09/24 11:48:45;;;;;;;6.03;5.43;;;21.80;40.50;;;;;;5125901;28;20499;-80
2021/09/24 11:51:17;;;;;;;8.10;5.27;;;21.70;40.40;;;;;;5125294;28;20413;-78
2021/09/24 11:53:50;;;;;;;6.90;5.60;;;21.70;40.40;;;;;;5125179;28;20580;-80
2021/09/24 11:56:30;;;;;;;5.77;5.17;;;21.70;40.40;;;;;;5125010;28;20544;-79
2021/09/24 11:59:02;;;;;;;5.97;5.33;;;21.80;40.50;;;;;;5123793;28;20481;-79
2021/09/24 12:01:30;;;;;;;6.73;5.73;;;21.90;40.60;;;;;;5125669;28;20428;-79
2021/09/24 12:03:59;;;;;;;7.37;5.57;;;21.90;40.60;;;;;;5124185;28;20565;-80
2021/09/24 12:06:38;;;;;;;5.93;5.23;;;22.00;40.20;;;;;;5123157;28;20450;-77
2021/09/24 12:09:09;;;;;;;6.70;5.30;;;22.00;40.70;;;;;;5119278;28;20458;-77
2021/09/24 12:11:44;;;;;;;5.90;5.40;;;22.00;39.60;;;;;;5117656;28;20573;-76
2021/09/24 12:14:12;;;;;;;6.17;5.53;;;22.10;39.20;;;;;;5119146;28;20567;-76
2021/09/24 12:16:41;;;;;;;5.90;5.40;;;22.00;39.90;;;;;;5129455;28;20450;-77
2021/09/24 12:19:10;;;;;;;6.30;5.70;;;22.10;40.40;;;;;;5119223;28;20482;-77
2021/09/24 12:21:49;;;;;;;6.77;6.07;;;22.10;40.40;;;;;;5117721;28;20834;-77
2021/09/24 12:24:18;;;;;;;9.50;6.00;;;22.10;40.80;;;;;;5123638;28;20440;-81
2021/09/24 12:26:48;;;;;;;6.30;5.70;;;22.00;40.70;;;;;;5127471;28;20455;-80
2021/09/24 12:29:17;;;;;;;6.53;5.90;;;22.00;40.70;;;;;;5121993;28;20871;-80
2021/09/24 12:31:47;;;;;;;6.00;5.40;;;22.10;40.80;;;;;;5119606;28;20871;-77
2021/09/24 12:34:16;;;;;;;6.60;6.00;;;22.20;40.90;;;;;;5120900;28;20895;-77
2021/09/24 12:36:56;;;;;;;6.20;5.70;;;22.20;40.90;;;;;;5120159;28;20935;-78
2021/09/24 12:39:25;;;;;;;8.07;6.00;;;22.30;41.00;;;;;;5123608;28;21020;-77
2021/09/24 12:41:52;;;;;;;6.27;5.67;;;22.40;41.00;;;;;;5130679;28;20442;-77
2021/09/24 12:44:20;;;;;;;6.60;6.00;;;22.30;40.90;;;;;;5121303;28;20466;-77
2021/09/24 12:46:51;;;;;;;6.20;5.60;;;22.50;41.10;;;;;;5122705;28;20592;-79
2021/09/24 12:49:20;;;;;;;6.10;5.60;;;22.30;40.90;;;;;;5118653;28;20450;-78
2021/09/24 12:51:48;;;;;;;6.03;5.33;;;22.40;39.40;;;;;;5118947;28;20480;-77
2021/09/24 12:54:16;;;;;;;6.83;6.23;;;22.50;40.10;;;;;;5118381;28;20521;-78
2021/09/24 12:56:43;;;;;;;5.87;5.37;;;22.40;39.70;;;;;;5117701;28;20481;-78